createdAt,value
2022-08-05T00:02:20.256Z,50.19
2022-08-05T00:07:59.920Z,50.04
2022-08-05T00:13:39.608Z,49.94
2022-08-05T00:19:02.293Z,50.16
2022-08-05T00:24:30.653Z,50.08
2022-08-05T00:29:53.162Z,50.14
2022-08-05T00:35:18.209Z,50.64
2022-08-05T00:40:53.918Z,50.87
2022-08-05T00:46:15.716Z,50.29
2022-08-05T00:51:51.237Z,50.54
2022-08-05T00:57:13.983Z,49.98
2022-08-05T01:02:35.708Z,49.80
2022-08-05T01:08:42.059Z,50.14
2022-08-05T01:13:59.869Z,50.40
2022-08-05T01:19:56.532Z,50.68
2022-08-05T01:25:43.578Z,50.41
2022-08-05T01:31:15.208Z,50.43
2022-08-05T01:36:46.969Z,50.44
2022-08-05T01:42:13.768Z,50.78
2022-08-05T01:47:39.490Z,50.17
2022-08-05T01:53:08.591Z,50.33
2022-08-05T01:58:45.136Z,50.37
2022-08-05T02:04:10.260Z,50.47
2022-08-05T02:09:32.546Z,50.45
2022-08-05T02:15:22.306Z,50.39
2022-08-05T02:20:58.775Z,50.43
2022-08-05T02:26:28.396Z,50.50
2022-08-05T02:31:54.224Z,50.38
2022-08-05T02:37:19.989Z,50.07
2022-08-05T02:42:45.546Z,50.26
2022-08-05T02:48:16.289Z,50.42
2022-08-05T02:53:40.436Z,50.50
2022-08-05T02:59:03.728Z,50.17
2022-08-05T03:04:28.099Z,50.33
2022-08-05T03:09:52.014Z,50.20
2022-08-05T03:15:14.496Z,50.22
2022-08-05T03:20:38.488Z,50.27
2022-08-05T03:26:32.041Z,50.39
2022-08-05T03:31:56.520Z,50.60
2022-08-05T03:37:21.181Z,50.33
2022-08-05T03:42:51.910Z,50.32
2022-08-05T03:48:14.649Z,50.42
2022-08-05T03:55:53.870Z,50.28
2022-08-05T03:59:54.973Z,49.92
2022-08-05T04:05:18.779Z,50.10
2022-08-05T04:10:41.847Z,49.86
2022-08-05T04:16:04.303Z,49.76
2022-08-05T04:22:09.351Z,49.86
2022-08-05T04:27:08.498Z,49.98
2022-08-05T04:32:31.138Z,49.86
2022-08-05T04:38:00.988Z,49.78
2022-08-05T04:43:24.750Z,49.73
2022-08-05T04:48:47.759Z,49.83
2022-08-05T04:54:14.917Z,49.79
2022-08-05T04:59:39.131Z,50.01
2022-08-05T05:05:03.016Z,49.94
2022-08-05T05:10:25.078Z,49.86
2022-08-05T05:15:56.633Z,49.74
2022-08-05T05:21:22.184Z,49.74
2022-08-05T05:26:51.945Z,49.87
2022-08-05T05:32:15.607Z,49.64
2022-08-05T05:38:00.101Z,49.61
2022-08-05T05:43:57.548Z,49.46
2022-08-05T05:49:06.440Z,46.68
2022-08-05T05:54:50.329Z,46.03
2022-08-05T06:00:18.272Z,46.01
2022-08-05T06:05:39.963Z,46.45
2022-08-05T06:11:04.035Z,46.16
2022-08-05T06:16:30.124Z,46.27
2022-08-05T06:21:53.864Z,46.56
2022-08-05T06:28:09.386Z,45.71
2022-08-05T06:32:58.034Z,45.87
2022-08-05T06:38:36.182Z,45.90
2022-08-05T06:44:00.620Z,45.81
2022-08-05T06:50:01.853Z,45.53
2022-08-05T06:55:05.063Z,45.73
2022-08-05T07:00:26.749Z,45.70
2022-08-05T07:05:51.527Z,46.02
2022-08-05T07:11:15.318Z,45.99
2022-08-05T07:18:00.161Z,45.53
2022-08-05T07:22:34.121Z,45.52
2022-08-05T07:28:01.421Z,45.04
2022-08-05T07:33:36.949Z,45.40
2022-08-05T07:39:06.752Z,45.43
2022-08-05T07:44:46.305Z,45.05
2022-08-05T07:50:09.132Z,45.10
2022-08-05T07:55:53.607Z,44.89
2022-08-05T08:01:13.493Z,44.66
2022-08-05T08:06:37.448Z,44.18
2022-08-05T08:12:06.218Z,43.88
2022-08-05T08:17:35.291Z,43.71
2022-08-05T08:23:03.416Z,43.70
2022-08-05T08:28:36.696Z,43.51
2022-08-05T08:33:58.969Z,43.81
2022-08-05T08:39:21.888Z,43.90
2022-08-05T08:45:20.312Z,44.00
2022-08-05T08:51:03.049Z,43.88
2022-08-05T08:56:08.632Z,43.69
2022-08-05T09:01:32.000Z,43.85
2022-08-05T09:06:53.789Z,43.80
2022-08-05T09:12:20.626Z,43.79
2022-08-05T09:17:50.745Z,43.57
2022-08-05T09:23:19.078Z,43.57
2022-08-05T09:28:41.823Z,43.78
2022-08-05T09:34:07.812Z,43.85
2022-08-05T09:39:41.794Z,43.32
2022-08-05T09:46:04.553Z,43.26
2022-08-05T09:50:52.108Z,43.01
2022-08-05T09:56:13.846Z,42.70
2022-08-05T10:01:40.178Z,42.76
2022-08-05T10:07:20.815Z,42.62
2022-08-05T10:12:56.211Z,42.57
2022-08-05T10:18:27.393Z,42.28
2022-08-05T10:23:59.445Z,42.34
2022-08-05T10:30:06.065Z,41.86
2022-08-05T10:35:04.579Z,41.87
2022-08-05T10:40:45.083Z,41.47
2022-08-05T10:46:12.581Z,41.39
2022-08-05T10:51:57.782Z,41.43
2022-08-05T10:57:33.704Z,41.43
2022-08-05T11:03:23.652Z,41.40
2022-08-05T11:09:16.607Z,40.93
2022-08-05T11:20:43.851Z,40.88
2022-08-05T11:26:28.627Z,40.72
2022-08-05T11:32:24.902Z,40.63
2022-08-05T11:38:29.336Z,40.31
2022-08-05T11:44:08.398Z,40.61
2022-08-05T11:49:33.873Z,40.29
2022-08-05T11:54:57.633Z,40.51
2022-08-05T12:00:32.032Z,39.89
2022-08-05T12:05:54.510Z,39.61
2022-08-05T12:11:23.853Z,39.95
2022-08-05T12:16:50.274Z,40.11
2022-08-05T12:22:12.820Z,39.81
2022-08-05T12:27:53.348Z,39.77
2022-08-05T12:33:27.479Z,39.82
2022-08-05T12:38:58.610Z,39.73
2022-08-05T12:44:21.606Z,39.59
2022-08-05T12:50:04.097Z,39.75
2022-08-05T12:55:32.477Z,39.40
2022-08-05T13:02:03.463Z,39.07
2022-08-05T13:06:51.942Z,39.33
2022-08-05T13:12:16.450Z,39.31
2022-08-05T13:17:41.988Z,39.28
2022-08-05T13:23:07.144Z,39.00
2022-08-05T13:28:29.455Z,38.60
2022-08-05T13:34:22.241Z,38.68
2022-08-05T13:40:16.210Z,38.72
2022-08-05T13:45:21.575Z,38.07
2022-08-05T13:50:43.327Z,38.78
2022-08-05T13:56:17.969Z,38.87
2022-08-05T14:01:46.727Z,38.50
2022-08-05T14:07:59.964Z,38.17
2022-08-05T14:13:15.411Z,38.60
2022-08-05T14:18:37.914Z,38.30
2022-08-05T14:24:00.735Z,38.18
2022-08-05T14:29:22.646Z,37.95
2022-08-05T14:34:45.016Z,37.65
2022-08-05T14:40:08.447Z,37.79
2022-08-05T14:45:30.475Z,37.71
2022-08-05T14:50:52.546Z,37.43
2022-08-05T14:56:14.645Z,36.89
2022-08-05T15:01:48.870Z,37.05
2022-08-05T15:07:11.427Z,36.71
2022-08-05T15:13:01.189Z,36.60
2022-08-05T15:18:26.091Z,36.57
2022-08-05T15:23:48.299Z,36.35
2022-08-05T15:29:10.051Z,35.84
2022-08-05T15:34:33.613Z,35.93
2022-08-05T15:41:00.214Z,36.21
2022-08-05T15:45:45.634Z,36.35
2022-08-05T15:51:07.852Z,36.11
2022-08-05T15:56:30.653Z,35.91
2022-08-05T16:01:53.720Z,35.77
2022-08-05T16:07:15.586Z,36.43
2022-08-05T16:12:37.327Z,34.92
2022-08-05T16:17:59.320Z,35.15
2022-08-05T16:23:21.166Z,35.28
2022-08-05T16:28:44.526Z,35.14
2022-08-05T16:34:06.213Z,35.24
2022-08-05T16:40:06.103Z,35.21
2022-08-05T16:46:03.550Z,35.73
2022-08-05T16:50:54.960Z,35.29
2022-08-05T16:56:17.372Z,35.69
2022-08-05T17:01:54.695Z,35.69
2022-08-05T17:07:38.925Z,35.88
2022-08-05T17:12:59.437Z,35.63
2022-08-05T17:18:23.322Z,35.66
2022-08-05T17:24:04.370Z,35.13
2022-08-05T17:29:33.111Z,35.16
2022-08-05T17:34:55.853Z,34.87
2022-08-05T17:40:22.560Z,34.59
2022-08-05T17:45:44.784Z,34.40
2022-08-05T17:51:09.270Z,35.04
2022-08-05T17:56:31.546Z,34.64
2022-08-05T18:01:54.282Z,34.01
2022-08-05T18:07:16.562Z,33.79
2022-08-05T18:12:39.270Z,33.55
2022-08-05T18:18:05.571Z,32.96
2022-08-05T18:23:40.720Z,32.63
2022-08-05T18:29:10.393Z,32.17
2022-08-05T18:34:40.715Z,31.88
2022-08-05T18:41:50.581Z,32.32
2022-08-05T18:45:45.411Z,31.93
2022-08-05T18:52:05.065Z,31.95
2022-08-05T18:57:09.708Z,29.82
2022-08-05T19:02:38.409Z,29.76
2022-08-05T19:08:02.766Z,29.38
2022-08-05T19:13:29.255Z,29.90
2022-08-05T19:18:51.229Z,29.87
2022-08-05T19:24:13.363Z,30.33
2022-08-05T19:29:36.163Z,30.28
2022-08-05T19:34:58.302Z,30.43
2022-08-05T19:40:20.023Z,31.04
2022-08-05T19:45:54.423Z,30.72
2022-08-05T19:52:05.489Z,30.80
2022-08-05T19:57:09.175Z,30.81
2022-08-05T20:02:33.665Z,31.00
2022-08-05T20:07:59.066Z,31.29
2022-08-05T20:13:29.992Z,31.09
2022-08-05T20:19:03.386Z,30.91
2022-08-05T20:24:25.125Z,30.89
2022-08-05T20:29:57.416Z,31.17
2022-08-05T20:35:20.335Z,31.36
2022-08-05T20:40:43.269Z,31.47
2022-08-05T20:46:06.915Z,31.58
2022-08-05T20:51:28.629Z,31.71
2022-08-05T20:56:50.337Z,31.91
2022-08-05T21:02:12.353Z,32.11
2022-08-05T21:07:50.493Z,32.48
2022-08-05T21:13:15.885Z,32.18
2022-08-05T21:18:47.913Z,32.58
2022-08-05T21:24:12.812Z,32.46
2022-08-05T21:29:40.608Z,32.83
2022-08-05T21:35:18.110Z,33.08
2022-08-05T21:40:45.082Z,33.08
2022-08-05T21:46:07.320Z,32.99
2022-08-05T21:52:22.979Z,33.11
2022-08-05T21:57:30.886Z,33.29
2022-08-05T22:02:52.693Z,33.68
2022-08-05T22:08:21.960Z,33.59
2022-08-05T22:14:31.221Z,33.58
2022-08-05T22:20:01.522Z,33.71
2022-08-05T22:26:10.871Z,33.80
2022-08-05T22:31:09.279Z,33.88
2022-08-05T22:36:32.941Z,33.82
2022-08-05T22:42:09.591Z,33.75
2022-08-05T22:47:34.664Z,34.15
2022-08-05T22:52:57.285Z,34.22
2022-08-05T22:58:28.628Z,34.47
2022-08-05T23:03:58.011Z,34.33
2022-08-05T23:09:27.467Z,34.69
2022-08-05T23:15:09.012Z,34.62
2022-08-05T23:20:32.891Z,34.84
2022-08-05T23:25:55.448Z,35.00
2022-08-05T23:31:18.031Z,35.29
2022-08-05T23:36:44.389Z,35.39
2022-08-05T23:42:08.631Z,35.24
2022-08-05T23:47:36.516Z,35.16
2022-08-05T23:53:22.712Z,35.31
2022-08-05T23:58:44.907Z,35.44
